sensor_id;sensor_type;location;lat;lon;timestamp;pressure;altitude;pressure_sealevel;temperature;humidity
62544;BME280;48597;49.030;1.822;2023-10-09T00:01:49;101559.53;;;21.43;54.19
62544;BME280;48597;49.030;1.822;2023-10-09T00:04:14;101555.91;;;21.42;54.39
62544;BME280;48597;49.030;1.822;2023-10-09T00:06:40;101552.22;;;21.42;54.21
62544;BME280;48597;49.030;1.822;2023-10-09T00:09:07;101551.41;;;21.41;54.39
62544;BME280;48597;49.030;1.822;2023-10-09T00:11:56;101562.88;;;21.41;54.23
62544;BME280;48597;49.030;1.822;2023-10-09T00:14:26;101565.75;;;21.41;54.11
62544;BME280;48597;49.030;1.822;2023-10-09T00:16:51;101557.59;;;21.39;54.41
62544;BME280;48597;49.030;1.822;2023-10-09T00:19:35;101571.13;;;21.39;54.08
62544;BME280;48597;49.030;1.822;2023-10-09T00:22:02;101574.00;;;21.39;54.09
62544;BME280;48597;49.030;1.822;2023-10-09T00:24:34;101568.25;;;21.39;54.30
62544;BME280;48597;49.030;1.822;2023-10-09T00:27:00;101561.72;;;21.38;54.25
62544;BME280;48597;49.030;1.822;2023-10-09T00:29:37;101554.34;;;21.37;54.29
62544;BME280;48597;49.030;1.822;2023-10-09T00:32:09;101555.97;;;21.38;54.03
62544;BME280;48597;49.030;1.822;2023-10-09T00:34:52;101545.75;;;21.37;54.09
62544;BME280;48597;49.030;1.822;2023-10-09T00:37:18;101544.94;;;21.37;54.10
62544;BME280;48597;49.030;1.822;2023-10-09T00:39:48;101545.38;;;21.35;54.16
62544;BME280;48597;49.030;1.822;2023-10-09T00:42:20;101540.47;;;21.36;54.13
62544;BME280;48597;49.030;1.822;2023-10-09T00:44:58;101529.00;;;21.36;53.95
62544;BME280;48597;49.030;1.822;2023-10-09T00:47:30;101536.78;;;21.35;54.19
62544;BME280;48597;49.030;1.822;2023-10-09T00:50:07;101531.50;;;21.34;54.19
62544;BME280;48597;49.030;1.822;2023-10-09T00:52:39;101533.09;;;21.35;54.11
62544;BME280;48597;49.030;1.822;2023-10-09T00:55:19;101528.63;;;21.34;53.89
62544;BME280;48597;49.030;1.822;2023-10-09T00:58:14;101534.34;;;21.34;53.87
62544;BME280;48597;49.030;1.822;2023-10-09T01:00:41;101520.47;;;21.32;54.03
62544;BME280;48597;49.030;1.822;2023-10-09T01:03:11;101517.59;;;21.32;54.21
62544;BME280;48597;49.030;1.822;2023-10-09T01:05:43;101516.78;;;21.32;54.25
62544;BME280;48597;49.030;1.822;2023-10-09T01:08:20;101506.13;;;21.32;53.90
62544;BME280;48597;49.030;1.822;2023-10-09T01:10:55;101505.31;;;21.32;53.99
62544;BME280;48597;49.030;1.822;2023-10-09T01:13:24;101513.91;;;21.32;53.91
62544;BME280;48597;49.030;1.822;2023-10-09T01:16:05;101514.38;;;21.30;54.14
62544;BME280;48597;49.030;1.822;2023-10-09T01:18:30;101517.22;;;21.30;54.00
62544;BME280;48597;49.030;1.822;2023-10-09T01:21:00;101517.22;;;21.30;54.27
62544;BME280;48597;49.030;1.822;2023-10-09T01:23:27;101511.97;;;21.29;54.14
62544;BME280;48597;49.030;1.822;2023-10-09T01:25:54;101509.88;;;21.29;53.90
62544;BME280;48597;49.030;1.822;2023-10-09T01:28:19;101504.63;;;21.28;54.08
62544;BME280;48597;49.030;1.822;2023-10-09T01:30:45;101499.69;;;21.28;53.95
62544;BME280;48597;49.030;1.822;2023-10-09T01:33:12;101500.50;;;21.29;54.03
62544;BME280;48597;49.030;1.822;2023-10-09T01:35:40;101498.88;;;21.28;53.94
62544;BME280;48597;49.030;1.822;2023-10-09T01:38:12;101508.28;;;21.28;54.07
62544;BME280;48597;49.030;1.822;2023-10-09T01:40:40;101500.94;;;21.27;54.17
62544;BME280;48597;49.030;1.822;2023-10-09T01:43:05;101497.25;;;21.27;53.80
62544;BME280;48597;49.030;1.822;2023-10-09T01:45:38;101490.72;;;21.26;53.96
62544;BME280;48597;49.030;1.822;2023-10-09T01:48:11;101489.91;;;21.26;53.74
62544;BME280;48597;49.030;1.822;2023-10-09T01:50:37;101494.84;;;21.25;53.97
62544;BME280;48597;49.030;1.822;2023-10-09T01:53:06;101500.56;;;21.25;53.84
62544;BME280;48597;49.030;1.822;2023-10-09T01:55:33;101494.03;;;21.25;53.88
62544;BME280;48597;49.030;1.822;2023-10-09T01:58:19;101501.00;;;21.24;54.05
62544;BME280;48597;49.030;1.822;2023-10-09T02:00:48;101501.81;;;21.24;54.14
62544;BME280;48597;49.030;1.822;2023-10-09T02:03:18;101498.16;;;21.24;53.94
62544;BME280;48597;49.030;1.822;2023-10-09T02:05:47;101498.16;;;21.24;54.02
62544;BME280;48597;49.030;1.822;2023-10-09T02:08:12;101494.47;;;21.23;53.94
62544;BME280;48597;49.030;1.822;2023-10-09T02:10:38;101494.47;;;21.23;54.00
62544;BME280;48597;49.030;1.822;2023-10-09T02:13:12;101490.00;;;21.22;54.05
62544;BME280;48597;49.030;1.822;2023-10-09T02:15:42;101499.41;;;21.23;53.98
62544;BME280;48597;49.030;1.822;2023-10-09T02:18:07;101491.59;;;21.23;53.61
62544;BME280;48597;49.030;1.822;2023-10-09T02:20:52;101498.59;;;21.22;53.82
62544;BME280;48597;49.030;1.822;2023-10-09T02:23:24;101489.19;;;21.22;53.81
62544;BME280;48597;49.030;1.822;2023-10-09T02:25:58;101489.19;;;21.22;53.99
62544;BME280;48597;49.030;1.822;2023-10-09T02:28:27;101494.09;;;21.21;53.76
62544;BME280;48597;49.030;1.822;2023-10-09T02:30:57;101495.34;;;21.20;53.91
62544;BME280;48597;49.030;1.822;2023-10-09T02:33:25;101483.88;;;21.20;53.94
62544;BME280;48597;49.030;1.822;2023-10-09T02:35:54;101481.03;;;21.20;53.60
62544;BME280;48597;49.030;1.822;2023-10-09T02:38:20;101485.13;;;21.19;53.81
62544;BME280;48597;49.030;1.822;2023-10-09T02:40:49;101478.59;;;21.19;53.91
62544;BME280;48597;49.030;1.822;2023-10-09T02:43:30;101488.00;;;21.19;53.94
62544;BME280;48597;49.030;1.822;2023-10-09T02:46:15;101481.47;;;21.19;53.67
62544;BME280;48597;49.030;1.822;2023-10-09T02:48:49;101477.75;;;21.18;53.56
62544;BME280;48597;49.030;1.822;2023-10-09T02:51:21;101480.63;;;21.18;53.92
62544;BME280;48597;49.030;1.822;2023-10-09T02:53:52;101478.19;;;21.17;53.77
62544;BME280;48597;49.030;1.822;2023-10-09T02:56:17;101479.81;;;21.18;53.88
62544;BME280;48597;49.030;1.822;2023-10-09T02:58:49;101478.19;;;21.17;53.84
62544;BME280;48597;49.030;1.822;2023-10-09T03:01:14;101474.53;;;21.16;53.72
62544;BME280;48597;49.030;1.822;2023-10-09T03:03:40;101492.53;;;21.17;53.94
62544;BME280;48597;49.030;1.822;2023-10-09T03:06:11;101495.88;;;21.15;53.77
62544;BME280;48597;49.030;1.822;2023-10-09T03:08:51;101494.59;;;21.16;53.47
62544;BME280;48597;49.030;1.822;2023-10-09T03:11:16;101484.41;;;21.15;53.48
62544;BME280;48597;49.030;1.822;2023-10-09T03:13:42;101483.59;;;21.15;53.71
62544;BME280;48597;49.030;1.822;2023-10-09T03:16:09;101480.72;;;21.15;53.67
62544;BME280;48597;49.030;1.822;2023-10-09T03:18:44;101481.53;;;21.15;53.46
62544;BME280;48597;49.030;1.822;2023-10-09T03:21:09;101477.06;;;21.14;53.55
62544;BME280;48597;49.030;1.822;2023-10-09T03:23:35;101484.84;;;21.14;53.30
62544;BME280;48597;49.030;1.822;2023-10-09T03:26:00;101479.09;;;21.14;53.64
62544;BME280;48597;49.030;1.822;2023-10-09T03:28:25;101470.50;;;21.14;53.49
62544;BME280;48597;49.030;1.822;2023-10-09T03:30:51;101476.25;;;21.14;53.60
62544;BME280;48597;49.030;1.822;2023-10-09T03:33:18;101473.81;;;21.12;53.75
62544;BME280;48597;49.030;1.822;2023-10-09T03:35:43;101481.16;;;21.13;53.54
62544;BME280;48597;49.030;1.822;2023-10-09T03:38:08;101475.88;;;21.12;53.53
62544;BME280;48597;49.030;1.822;2023-10-09T03:40:43;101476.69;;;21.12;53.34
62544;BME280;48597;49.030;1.822;2023-10-09T03:43:09;101478.75;;;21.12;53.53
62544;BME280;48597;49.030;1.822;2023-10-09T03:45:38;101470.16;;;21.12;53.54
62544;BME280;48597;49.030;1.822;2023-10-09T03:48:10;101461.53;;;21.12;53.41
62544;BME280;48597;49.030;1.822;2023-10-09T03:50:45;101472.22;;;21.11;53.56
62544;BME280;48597;49.030;1.822;2023-10-09T03:53:10;101470.16;;;21.12;53.38
62544;BME280;48597;49.030;1.822;2023-10-09T03:55:37;101470.16;;;21.12;53.39
62544;BME280;48597;49.030;1.822;2023-10-09T03:58:03;101471.41;;;21.11;53.35
62544;BME280;48597;49.030;1.822;2023-10-09T04:00:28;101467.28;;;21.12;53.41
62544;BME280;48597;49.030;1.822;2023-10-09T04:02:55;101468.53;;;21.11;53.43
62544;BME280;48597;49.030;1.822;2023-10-09T04:05:20;101473.44;;;21.10;53.31
62544;BME280;48597;49.030;1.822;2023-10-09T04:07:45;101477.13;;;21.11;53.22
62544;BME280;48597;49.030;1.822;2023-10-09T04:10:11;101474.69;;;21.09;53.47
62544;BME280;48597;49.030;1.822;2023-10-09T04:12:54;101474.69;;;21.09;53.13
62544;BME280;48597;49.030;1.822;2023-10-09T04:15:23;101481.25;;;21.10;53.32
62544;BME280;48597;49.030;1.822;2023-10-09T04:17:48;101479.63;;;21.09;53.49
62544;BME280;48597;49.030;1.822;2023-10-09T04:20:16;101476.75;;;21.09;53.42
62544;BME280;48597;49.030;1.822;2023-10-09T04:22:44;101476.75;;;21.09;53.39
62544;BME280;48597;49.030;1.822;2023-10-09T04:25:19;101478.00;;;21.08;53.31
62544;BME280;48597;49.030;1.822;2023-10-09T04:27:53;101478.00;;;21.08;53.16
62544;BME280;48597;49.030;1.822;2023-10-09T04:30:18;101478.81;;;21.08;53.31
62544;BME280;48597;49.030;1.822;2023-10-09T04:32:44;101480.88;;;21.08;53.29
62544;BME280;48597;49.030;1.822;2023-10-09T04:35:10;101488.66;;;21.07;53.34
62544;BME280;48597;49.030;1.822;2023-10-09T04:37:44;101491.53;;;21.07;53.42
62544;BME280;48597;49.030;1.822;2023-10-09T04:40:17;101495.22;;;21.08;53.33
62544;BME280;48597;49.030;1.822;2023-10-09T04:43:01;101484.19;;;21.06;53.24
62544;BME280;48597;49.030;1.822;2023-10-09T04:45:31;101489.91;;;21.06;53.42
62544;BME280;48597;49.030;1.822;2023-10-09T04:48:08;101487.06;;;21.06;53.05
62544;BME280;48597;49.030;1.822;2023-10-09T04:50:34;101482.56;;;21.05;53.21
62544;BME280;48597;49.030;1.822;2023-10-09T04:52:59;101480.50;;;21.05;53.34
62544;BME280;48597;49.030;1.822;2023-10-09T04:55:57;101481.75;;;21.04;53.20
62544;BME280;48597;49.030;1.822;2023-10-09T04:58:25;101481.75;;;21.04;53.17
62544;BME280;48597;49.030;1.822;2023-10-09T05:00:51;101476.03;;;21.04;53.15
62544;BME280;48597;49.030;1.822;2023-10-09T05:03:22;101483.38;;;21.05;53.08
62544;BME280;48597;49.030;1.822;2023-10-09T05:05:54;101493.22;;;21.04;53.13
62544;BME280;48597;49.030;1.822;2023-10-09T05:08:25;101488.75;;;21.03;53.21
62544;BME280;48597;49.030;1.822;2023-10-09T05:10:57;101492.41;;;21.04;53.07
62544;BME280;48597;49.030;1.822;2023-10-09T05:13:23;101494.47;;;21.03;53.24
62544;BME280;48597;49.030;1.822;2023-10-09T05:16:14;101490.84;;;21.03;53.10
62544;BME280;48597;49.030;1.822;2023-10-09T05:18:52;101494.47;;;21.03;52.93
62544;BME280;48597;49.030;1.822;2023-10-09T05:21:24;101492.88;;;21.02;53.09
62544;BME280;48597;49.030;1.822;2023-10-09T05:23:55;101497.81;;;21.02;53.09
62544;BME280;48597;49.030;1.822;2023-10-09T05:26:45;101496.56;;;21.03;53.11
62544;BME280;48597;49.030;1.822;2023-10-09T05:29:20;101497.00;;;21.01;53.21
62544;BME280;48597;49.030;1.822;2023-10-09T05:31:46;101499.88;;;21.01;53.16
62544;BME280;48597;49.030;1.822;2023-10-09T05:34:33;101497.00;;;21.01;52.96
62544;BME280;48597;49.030;1.822;2023-10-09T05:37:05;101498.63;;;21.02;52.99
62544;BME280;48597;49.030;1.822;2023-10-09T05:39:53;101498.63;;;21.02;52.72
62544;BME280;48597;49.030;1.822;2023-10-09T05:42:25;101496.19;;;21.01;53.23
62544;BME280;48597;49.030;1.822;2023-10-09T05:45:08;101499.06;;;21.01;53.04
62544;BME280;48597;49.030;1.822;2023-10-09T05:47:42;101501.13;;;21.00;53.01
62544;BME280;48597;49.030;1.822;2023-10-09T05:50:23;101498.25;;;21.00;53.18
62544;BME280;48597;49.030;1.822;2023-10-09T05:52:49;101507.66;;;21.01;52.97
62544;BME280;48597;49.030;1.822;2023-10-09T05:55:17;101507.66;;;21.01;52.95
62544;BME280;48597;49.030;1.822;2023-10-09T05:58:15;101508.91;;;21.00;53.09
62544;BME280;48597;49.030;1.822;2023-10-09T06:00:58;101508.91;;;21.00;52.85
62544;BME280;48597;49.030;1.822;2023-10-09T06:03:42;101502.38;;;20.99;53.15
62544;BME280;48597;49.030;1.822;2023-10-09T06:06:14;101509.34;;;20.98;53.25
62544;BME280;48597;49.030;1.822;2023-10-09T06:09:06;101503.63;;;20.98;52.85
62544;BME280;48597;49.030;1.822;2023-10-09T06:11:38;101503.63;;;20.98;53.02
62544;BME280;48597;49.030;1.822;2023-10-09T06:14:03;101504.44;;;20.99;52.74
62544;BME280;48597;49.030;1.822;2023-10-09T06:16:37;101503.63;;;20.98;53.02
62544;BME280;48597;49.030;1.822;2023-10-09T06:19:21;101505.22;;;20.99;52.75
62544;BME280;48597;49.030;1.822;2023-10-09T06:21:47;101504.44;;;20.99;52.91
62544;BME280;48597;49.030;1.822;2023-10-09T06:24:21;101507.72;;;20.97;52.93
62544;BME280;48597;49.030;1.822;2023-10-09T06:26:56;101510.59;;;20.97;52.69
62544;BME280;48597;49.030;1.822;2023-10-09T06:29:30;101506.47;;;20.98;52.80
62544;BME280;48597;49.030;1.822;2023-10-09T06:32:13;101517.13;;;20.98;52.96
62544;BME280;48597;49.030;1.822;2023-10-09T06:37:11;101512.66;;;20.97;52.98
62544;BME280;48597;49.030;1.822;2023-10-09T06:39:59;101511.84;;;20.96;52.92
62544;BME280;48597;49.030;1.822;2023-10-09T06:42:25;101517.56;;;20.96;53.00
62544;BME280;48597;49.030;1.822;2023-10-09T06:45:10;101516.31;;;20.97;53.16
62544;BME280;48597;49.030;1.822;2023-10-09T06:47:38;101522.06;;;20.97;52.95
62544;BME280;48597;49.030;1.822;2023-10-09T06:50:10;101524.94;;;20.97;52.85
62544;BME280;48597;49.030;1.822;2023-10-09T06:52:58;101528.22;;;20.96;53.22
62544;BME280;48597;49.030;1.822;2023-10-09T06:55:43;101528.22;;;20.96;52.79
62544;BME280;48597;49.030;1.822;2023-10-09T06:58:26;101538.44;;;20.97;52.83
62544;BME280;48597;49.030;1.822;2023-10-09T07:00:53;101534.78;;;20.96;53.04
62544;BME280;48597;49.030;1.822;2023-10-09T07:03:37;101538.44;;;20.97;52.94
62544;BME280;48597;49.030;1.822;2023-10-09T07:06:17;101537.19;;;20.98;52.94
62544;BME280;48597;49.030;1.822;2023-10-09T07:08:52;101533.53;;;20.97;52.63
62544;BME280;48597;49.030;1.822;2023-10-09T07:17:03;101546.16;;;21.00;52.65
62544;BME280;48597;49.030;1.822;2023-10-09T07:19:46;101552.72;;;21.00;52.50
62544;BME280;48597;49.030;1.822;2023-10-09T07:22:12;101552.28;;;21.02;52.49
62544;BME280;48597;49.030;1.822;2023-10-09T07:24:53;101555.94;;;21.02;52.61
62544;BME280;48597;49.030;1.822;2023-10-09T07:27:25;101549.75;;;21.04;52.56
62544;BME280;48597;49.030;1.822;2023-10-09T07:30:10;101553.34;;;21.08;52.49
62544;BME280;48597;49.030;1.822;2023-10-09T07:32:57;101547.09;;;21.13;52.43
62544;BME280;48597;49.030;1.822;2023-10-09T07:35:34;101547.41;;;21.19;52.23
62544;BME280;48597;49.030;1.822;2023-10-09T07:38:13;101549.75;;;21.24;52.00
62544;BME280;48597;49.030;1.822;2023-10-09T07:40:40;101551.31;;;21.28;52.03
62544;BME280;48597;49.030;1.822;2023-10-09T07:43:24;101547.88;;;21.33;51.73
62544;BME280;48597;49.030;1.822;2023-10-09T07:46:14;101551.84;;;21.39;51.40
62544;BME280;48597;49.030;1.822;2023-10-09T07:49:02;101559.91;;;21.45;51.33
62544;BME280;48597;49.030;1.822;2023-10-09T07:51:35;101553.66;;;21.50;50.93
62544;BME280;48597;49.030;1.822;2023-10-09T07:54:00;101554.41;;;21.54;50.99
62544;BME280;48597;49.030;1.822;2023-10-09T07:56:35;101563.25;;;21.59;50.72
62544;BME280;48597;49.030;1.822;2023-10-09T07:59:18;101559.88;;;21.64;50.60
62544;BME280;48597;49.030;1.822;2023-10-09T08:01:45;101568.41;;;21.68;50.55
62544;BME280;48597;49.030;1.822;2023-10-09T08:04:30;101566.22;;;21.72;50.75
62544;BME280;48597;49.030;1.822;2023-10-09T08:07:13;101567.41;;;21.74;50.52
62544;BME280;48597;49.030;1.822;2023-10-09T08:09:48;101564.91;;;21.77;50.46
62544;BME280;48597;49.030;1.822;2023-10-09T08:12:14;101570.19;;;21.78;50.52
62544;BME280;48597;49.030;1.822;2023-10-09T08:14:43;101567.69;;;21.80;50.35
62544;BME280;48597;49.030;1.822;2023-10-09T08:17:08;101572.94;;;21.82;50.48
62544;BME280;48597;49.030;1.822;2023-10-09T08:19:40;101573.31;;;21.84;50.39
62544;BME280;48597;49.030;1.822;2023-10-09T08:22:39;101560.59;;;21.85;50.22
62544;BME280;48597;49.030;1.822;2023-10-09T08:25:17;101567.13;;;21.85;50.32
62544;BME280;48597;49.030;1.822;2023-10-09T08:27:59;101565.06;;;21.86;50.38
62544;BME280;48597;49.030;1.822;2023-10-09T08:30:45;101564.72;;;21.84;50.55
62544;BME280;48597;49.030;1.822;2023-10-09T08:33:16;101568.03;;;21.82;50.58
62544;BME280;48597;49.030;1.822;2023-10-09T08:35:52;101560.78;;;21.78;50.73
62544;BME280;48597;49.030;1.822;2023-10-09T08:38:21;101558.78;;;21.74;50.63
62544;BME280;48597;49.030;1.822;2023-10-09T08:40:49;101556.00;;;21.71;50.78
62544;BME280;48597;49.030;1.822;2023-10-09T08:43:19;101560.94;;;21.70;51.03
62544;BME280;48597;49.030;1.822;2023-10-09T08:45:54;101563.44;;;21.68;51.16
62544;BME280;48597;49.030;1.822;2023-10-09T08:48:26;101565.06;;;21.69;51.04
62544;BME280;48597;49.030;1.822;2023-10-09T08:50:54;101570.47;;;21.67;50.99
62544;BME280;48597;49.030;1.822;2023-10-09T08:53:20;101563.91;;;21.67;50.92
62544;BME280;48597;49.030;1.822;2023-10-09T08:55:45;101571.72;;;21.66;50.73
62544;BME280;48597;49.030;1.822;2023-10-09T08:58:11;101570.09;;;21.65;51.05
62544;BME280;48597;49.030;1.822;2023-10-09T09:00:50;101575.84;;;21.65;51.21
62544;BME280;48597;49.030;1.822;2023-10-09T09:03:16;101573.41;;;21.64;51.20
62544;BME280;48597;49.030;1.822;2023-10-09T09:05:45;101575.47;;;21.63;51.00
62544;BME280;48597;49.030;1.822;2023-10-09T09:08:33;101579.59;;;21.62;51.13
62544;BME280;48597;49.030;1.822;2023-10-09T09:10:57;101577.16;;;21.61;51.07
62544;BME280;48597;49.030;1.822;2023-10-09T09:13:25;101574.28;;;21.61;51.03
62544;BME280;48597;49.030;1.822;2023-10-09T09:15:50;101578.41;;;21.60;51.13
62544;BME280;48597;49.030;1.822;2023-10-09T09:18:18;101571.06;;;21.59;51.31
62544;BME280;48597;49.030;1.822;2023-10-09T09:20:44;101570.69;;;21.57;51.16
62544;BME280;48597;49.030;1.822;2023-10-09T09:23:12;101573.56;;;21.57;51.59
62544;BME280;48597;49.030;1.822;2023-10-09T09:25:42;101574.38;;;21.57;51.20
62544;BME280;48597;49.030;1.822;2023-10-09T09:28:14;101575.63;;;21.56;51.41
62544;BME280;48597;49.030;1.822;2023-10-09T09:30:46;101575.63;;;21.56;51.47
62544;BME280;48597;49.030;1.822;2023-10-09T09:36:04;101577.34;;;21.54;51.35
62544;BME280;48597;49.030;1.822;2023-10-09T09:38:31;101586.28;;;21.56;51.46
62544;BME280;48597;49.030;1.822;2023-10-09T09:41:18;101585.13;;;21.53;51.69
62544;BME280;48597;49.030;1.822;2023-10-09T09:43:51;101587.56;;;21.55;51.46
62544;BME280;48597;49.030;1.822;2023-10-09T09:46:17;101583.06;;;21.54;51.54
62544;BME280;48597;49.030;1.822;2023-10-09T09:48:43;101581.47;;;21.53;51.62
62544;BME280;48597;49.030;1.822;2023-10-09T09:51:13;101583.53;;;21.52;51.93
62544;BME280;48597;49.030;1.822;2023-10-09T09:53:42;101587.19;;;21.53;51.79
62544;BME280;48597;49.030;1.822;2023-10-09T09:56:12;101582.72;;;21.52;52.04
62544;BME280;48597;49.030;1.822;2023-10-09T09:58:42;101573.31;;;21.51;52.10
62544;BME280;48597;49.030;1.822;2023-10-09T10:01:08;101576.97;;;21.52;51.77
62544;BME280;48597;49.030;1.822;2023-10-09T10:03:51;101576.16;;;21.51;51.77
62544;BME280;48597;49.030;1.822;2023-10-09T10:06:20;101576.97;;;21.52;51.80
62544;BME280;48597;49.030;1.822;2023-10-09T10:08:48;101571.69;;;21.50;51.78
62544;BME280;48597;49.030;1.822;2023-10-09T10:14:00;101569.63;;;21.51;51.93
62544;BME280;48597;49.030;1.822;2023-10-09T10:16:29;101565.94;;;21.50;51.82
62544;BME280;48597;49.030;1.822;2023-10-09T10:21:25;101579.47;;;21.50;51.95
62544;BME280;48597;49.030;1.822;2023-10-09T10:23:56;101565.94;;;21.50;51.81
62544;BME280;48597;49.030;1.822;2023-10-09T10:26:30;101563.06;;;21.50;52.05
62544;BME280;48597;49.030;1.822;2023-10-09T10:29:18;101561.81;;;21.51;52.15
62544;BME280;48597;49.030;1.822;2023-10-09T10:31:53;101557.78;;;21.49;52.37
62544;BME280;48597;49.030;1.822;2023-10-09T10:34:22;101554.91;;;21.49;52.19
62544;BME280;48597;49.030;1.822;2023-10-09T10:36:49;101564.31;;;21.49;52.17
62544;BME280;48597;49.030;1.822;2023-10-09T10:39:17;101558.59;;;21.49;52.14
62544;BME280;48597;49.030;1.822;2023-10-09T10:42:08;101564.31;;;21.49;52.08
62544;BME280;48597;49.030;1.822;2023-10-09T10:44:34;101561.47;;;21.49;52.37
62544;BME280;48597;49.030;1.822;2023-10-09T10:47:07;101566.38;;;21.49;52.25
62544;BME280;48597;49.030;1.822;2023-10-09T10:49:51;101565.56;;;21.48;52.36
62544;BME280;48597;49.030;1.822;2023-10-09T10:52:21;101565.56;;;21.48;52.53
62544;BME280;48597;49.030;1.822;2023-10-09T10:54:46;101567.19;;;21.49;52.31
62544;BME280;48597;49.030;1.822;2023-10-09T10:57:15;101563.53;;;21.49;52.42
62544;BME280;48597;49.030;1.822;2023-10-09T10:59:53;101563.53;;;21.49;52.43
62544;BME280;48597;49.030;1.822;2023-10-09T11:02:29;101568.81;;;21.50;52.46
62544;BME280;48597;49.030;1.822;2023-10-09T11:04:56;101570.06;;;21.49;52.47
62544;BME280;48597;49.030;1.822;2023-10-09T11:07:23;101575.00;;;21.49;52.65
62544;BME280;48597;49.030;1.822;2023-10-09T11:09:50;101572.13;;;21.49;52.53
62544;BME280;48597;49.030;1.822;2023-10-09T11:12:31;101578.66;;;21.49;52.45
62544;BME280;48597;49.030;1.822;2023-10-09T11:15:15;101575.00;;;21.49;52.55
62544;BME280;48597;49.030;1.822;2023-10-09T11:20:34;101579.47;;;21.50;52.69
62544;BME280;48597;49.030;1.822;2023-10-09T11:23:01;101577.41;;;21.50;52.54
62544;BME280;48597;49.030;1.822;2023-10-09T11:25:50;101578.66;;;21.49;52.94
62544;BME280;48597;49.030;1.822;2023-10-09T11:28:22;101577.41;;;21.50;52.86
62544;BME280;48597;49.030;1.822;2023-10-09T11:31:13;101574.56;;;21.50;52.70
62544;BME280;48597;49.030;1.822;2023-10-09T11:33:43;101565.13;;;21.50;52.85
62544;BME280;48597;49.030;1.822;2023-10-09T11:36:08;101572.94;;;21.49;52.65
62544;BME280;48597;49.030;1.822;2023-10-09T11:38:37;101566.75;;;21.51;52.87
62544;BME280;48597;49.030;1.822;2023-10-09T11:41:15;101568.00;;;21.50;52.72
62544;BME280;48597;49.030;1.822;2023-10-09T11:44:03;101566.75;;;21.51;52.77
62544;BME280;48597;49.030;1.822;2023-10-09T11:46:30;101566.75;;;21.51;53.04
62544;BME280;48597;49.030;1.822;2023-10-09T11:49:08;101570.44;;;21.51;53.12
62544;BME280;48597;49.030;1.822;2023-10-09T11:51:46;101556.09;;;21.51;53.13
62544;BME280;48597;49.030;1.822;2023-10-09T11:54:30;101553.22;;;21.51;53.18
62544;BME280;48597;49.030;1.822;2023-10-09T11:57:00;101553.22;;;21.51;52.85
62544;BME280;48597;49.030;1.822;2023-10-09T11:59:28;101545.88;;;21.50;53.02
62544;BME280;48597;49.030;1.822;2023-10-09T12:01:59;101539.69;;;21.52;53.17
62544;BME280;48597;49.030;1.822;2023-10-09T12:04:26;101534.75;;;21.52;53.17
62544;BME280;48597;49.030;1.822;2023-10-09T12:06:55;101537.63;;;21.52;53.37
62544;BME280;48597;49.030;1.822;2023-10-09T12:09:31;101536.81;;;21.52;53.34
62544;BME280;48597;49.030;1.822;2023-10-09T12:11:59;101526.97;;;21.53;53.54
62544;BME280;48597;49.030;1.822;2023-10-09T12:14:25;101523.28;;;21.52;53.06
62544;BME280;48597;49.030;1.822;2023-10-09T12:16:51;101524.09;;;21.53;53.43
62544;BME280;48597;49.030;1.822;2023-10-09T12:19:17;101516.28;;;21.53;53.17
62544;BME280;48597;49.030;1.822;2023-10-09T12:21:43;101516.28;;;21.53;53.51
62544;BME280;48597;49.030;1.822;2023-10-09T12:24:08;101510.56;;;21.53;53.29
62544;BME280;48597;49.030;1.822;2023-10-09T12:26:37;101515.50;;;21.53;53.59
62544;BME280;48597;49.030;1.822;2023-10-09T12:29:04;101512.63;;;21.53;53.17
62544;BME280;48597;49.030;1.822;2023-10-09T12:31:35;101507.69;;;21.53;53.50
62544;BME280;48597;49.030;1.822;2023-10-09T12:34:01;101511.38;;;21.54;53.33
62544;BME280;48597;49.030;1.822;2023-10-09T12:36:26;101506.44;;;21.54;53.58
62544;BME280;48597;49.030;1.822;2023-10-09T12:38:51;101499.91;;;21.54;53.30
62544;BME280;48597;49.030;1.822;2023-10-09T12:41:24;101499.09;;;21.53;53.43
62544;BME280;48597;49.030;1.822;2023-10-09T12:43:53;101497.03;;;21.54;53.28
62544;BME280;48597;49.030;1.822;2023-10-09T12:46:19;101494.97;;;21.54;53.47
62544;BME280;48597;49.030;1.822;2023-10-09T12:48:48;101496.53;;;21.55;53.53
62544;BME280;48597;49.030;1.822;2023-10-09T12:51:13;101483.50;;;21.54;53.66
62544;BME280;48597;49.030;1.822;2023-10-09T12:53:45;101490.03;;;21.55;53.41
62544;BME280;48597;49.030;1.822;2023-10-09T12:56:11;101484.28;;;21.55;53.76
62544;BME280;48597;49.030;1.822;2023-10-09T12:58:40;101478.56;;;21.55;53.71
62544;BME280;48597;49.030;1.822;2023-10-09T13:01:09;101482.22;;;21.55;53.69
62544;BME280;48597;49.030;1.822;2023-10-09T13:03:36;101488.75;;;21.56;53.76
62544;BME280;48597;49.030;1.822;2023-10-09T13:06:04;101483.81;;;21.56;53.76
62544;BME280;48597;49.030;1.822;2023-10-09T13:08:35;101478.09;;;21.56;53.54
62544;BME280;48597;49.030;1.822;2023-10-09T13:11:05;101480.94;;;21.56;53.60
62544;BME280;48597;49.030;1.822;2023-10-09T13:13:35;101476.03;;;21.57;53.59
62544;BME280;48597;49.030;1.822;2023-10-09T13:18:33;101489.13;;;21.58;53.61
62544;BME280;48597;49.030;1.822;2023-10-09T13:20:59;101489.13;;;21.58;53.85
62544;BME280;48597;49.030;1.822;2023-10-09T13:23:29;101489.91;;;21.58;53.59
62544;BME280;48597;49.030;1.822;2023-10-09T13:26:03;101488.31;;;21.57;53.64
62544;BME280;48597;49.030;1.822;2023-10-09T13:28:33;101480.06;;;21.59;53.70
62544;BME280;48597;49.030;1.822;2023-10-09T13:31:02;101477.63;;;21.58;53.72
62544;BME280;48597;49.030;1.822;2023-10-09T13:33:29;101471.47;;;21.59;53.82
62544;BME280;48597;49.030;1.822;2023-10-09T13:36:01;101471.47;;;21.59;53.80
62544;BME280;48597;49.030;1.822;2023-10-09T13:38:27;101462.03;;;21.59;53.78